createdAt,value
2023-03-27T00:01:34.094Z,58.63
2023-03-27T00:04:02.085Z,59.40
2023-03-27T00:06:29.985Z,59.61
2023-03-27T00:08:58.258Z,59.37
2023-03-27T00:11:26.210Z,59.56
2023-03-27T00:13:55.467Z,60.07
2023-03-27T00:16:25.333Z,59.84
2023-03-27T00:18:54.310Z,59.36
2023-03-27T00:21:23.045Z,58.77
2023-03-27T00:23:51.340Z,58.83
2023-03-27T00:26:20.046Z,59.76
2023-03-27T00:28:47.983Z,60.12
2023-03-27T00:31:17.917Z,60.49
2023-03-27T00:33:45.955Z,59.36
2023-03-27T00:36:15.276Z,60.68
2023-03-27T00:38:45.755Z,59.88
2023-03-27T00:41:13.862Z,60.10
2023-03-27T00:43:44.749Z,59.65
2023-03-27T00:46:31.652Z,58.13
2023-03-27T00:49:02.718Z,59.01
2023-03-27T00:51:31.720Z,58.08
2023-03-27T00:54:00.909Z,59.32
2023-03-27T00:56:29.073Z,60.57
2023-03-27T00:59:01.778Z,60.15
2023-03-27T01:01:32.397Z,59.49
2023-03-27T01:04:03.367Z,62.47
2023-03-27T01:06:32.517Z,61.80
2023-03-27T01:09:00.671Z,60.90
2023-03-27T01:11:40.045Z,61.08
2023-03-27T01:14:16.515Z,60.96
2023-03-27T01:17:00.255Z,61.50
2023-03-27T01:19:56.059Z,60.85
2023-03-27T01:23:06.200Z,61.90
2023-03-27T01:26:03.176Z,64.23
2023-03-27T01:28:43.365Z,64.23
2023-03-27T01:31:31.851Z,63.91
2023-03-27T01:34:36.731Z,63.37
2023-03-27T01:37:30.819Z,63.77
2023-03-27T01:40:02.000Z,62.27
2023-03-27T01:42:34.571Z,62.61
2023-03-27T01:45:07.429Z,61.63
2023-03-27T01:47:43.970Z,61.31
2023-03-27T01:50:20.914Z,62.89
2023-03-27T01:52:55.098Z,60.95
2023-03-27T01:55:29.190Z,61.23
2023-03-27T01:58:03.263Z,61.88
2023-03-27T02:00:51.711Z,62.25
2023-03-27T02:03:27.062Z,62.14
2023-03-27T02:05:59.183Z,64.02
2023-03-27T02:08:33.319Z,63.64
2023-03-27T02:11:14.380Z,63.53
2023-03-27T02:13:47.552Z,63.62
2023-03-27T02:16:21.070Z,63.50
2023-03-27T02:18:56.779Z,62.80
2023-03-27T02:21:25.138Z,62.26
2023-03-27T02:23:53.628Z,62.26
2023-03-27T02:26:23.279Z,62.83
2023-03-27T02:29:22.014Z,62.33
2023-03-27T02:32:00.340Z,61.23
2023-03-27T02:34:50.518Z,62.30
2023-03-27T02:37:32.038Z,63.95
2023-03-27T02:40:40.341Z,63.22
2023-03-27T02:43:38.373Z,62.16
2023-03-27T02:46:17.253Z,61.61
2023-03-27T02:48:48.751Z,61.72
2023-03-27T02:51:22.203Z,62.65
2023-03-27T02:53:55.403Z,62.55
2023-03-27T02:56:26.267Z,61.42
2023-03-27T02:59:00.582Z,61.08
2023-03-27T03:01:46.516Z,60.78
2023-03-27T03:04:24.981Z,60.84
2023-03-27T03:07:11.448Z,59.08
2023-03-27T03:09:40.713Z,60.31
2023-03-27T03:12:10.111Z,59.66
2023-03-27T03:14:47.729Z,60.33
2023-03-27T03:17:16.808Z,59.54
2023-03-27T03:19:46.685Z,59.15
2023-03-27T03:22:14.753Z,60.17
2023-03-27T03:24:43.541Z,58.61
2023-03-27T03:27:14.798Z,60.24
2023-03-27T03:29:57.926Z,59.31
2023-03-27T03:32:30.452Z,60.54
2023-03-27T03:35:01.648Z,60.56
2023-03-27T03:37:38.558Z,61.80
2023-03-27T03:40:11.829Z,61.37
2023-03-27T03:42:46.373Z,62.53
2023-03-27T03:45:16.880Z,62.17
2023-03-27T03:47:46.133Z,61.35
2023-03-27T03:50:14.908Z,62.07
2023-03-27T03:52:43.333Z,62.21
2023-03-27T03:55:12.150Z,62.62
2023-03-27T03:57:41.871Z,62.95
2023-03-27T04:00:18.746Z,64.18
2023-03-27T04:02:53.692Z,63.56
2023-03-27T04:05:22.537Z,63.14
2023-03-27T04:07:56.527Z,64.53
2023-03-27T04:10:33.891Z,64.41
2023-03-27T04:13:06.702Z,64.19
2023-03-27T04:15:40.354Z,64.58
2023-03-27T04:18:19.729Z,64.90
2023-03-27T04:20:49.833Z,64.69
2023-03-27T04:23:20.243Z,64.14
2023-03-27T04:25:48.959Z,63.97
2023-03-27T04:28:22.842Z,64.46
2023-03-27T04:31:06.480Z,64.48
2023-03-27T04:34:03.633Z,65.38
2023-03-27T04:36:50.250Z,64.67
2023-03-27T04:39:23.439Z,64.63
2023-03-27T04:41:51.533Z,63.56
2023-03-27T04:44:19.870Z,63.90
2023-03-27T04:46:50.010Z,64.07
2023-03-27T04:49:19.174Z,63.37
2023-03-27T04:52:08.896Z,63.47
2023-03-27T04:54:36.978Z,63.47
2023-03-27T04:57:05.649Z,63.65
2023-03-27T04:59:33.660Z,63.56
2023-03-27T05:02:23.182Z,64.00
2023-03-27T05:05:02.309Z,63.25
2023-03-27T05:07:36.309Z,62.82
2023-03-27T05:10:07.111Z,62.63
2023-03-27T05:12:35.751Z,62.95
2023-03-27T05:15:06.346Z,63.01
2023-03-27T05:17:44.007Z,63.42
2023-03-27T05:20:14.745Z,62.61
2023-03-27T05:22:43.907Z,63.49
2023-03-27T05:25:29.440Z,63.65
2023-03-27T05:27:58.360Z,63.12
2023-03-27T05:30:30.866Z,63.75
2023-03-27T05:33:21.867Z,63.31
2023-03-27T05:35:52.581Z,62.91
2023-03-27T05:38:22.710Z,63.57
2023-03-27T05:40:56.609Z,63.85
2023-03-27T05:43:29.613Z,63.20
2023-03-27T05:45:57.570Z,62.29
2023-03-27T05:48:27.825Z,62.77
2023-03-27T05:51:00.197Z,63.05
2023-03-27T05:53:28.995Z,62.78
2023-03-27T05:56:18.857Z,63.19
2023-03-27T05:58:55.711Z,63.64
2023-03-27T06:01:25.847Z,62.83
2023-03-27T06:03:57.841Z,61.90
2023-03-27T06:06:30.371Z,61.77
2023-03-27T06:09:00.256Z,62.22
2023-03-27T06:11:29.371Z,61.34
2023-03-27T06:13:58.898Z,61.33
2023-03-27T06:16:41.489Z,61.50
2023-03-27T06:19:23.643Z,61.65
2023-03-27T06:21:52.997Z,60.51
2023-03-27T06:24:20.865Z,61.68
2023-03-27T06:26:48.899Z,61.05
2023-03-27T06:29:16.969Z,60.86
2023-03-27T06:31:48.593Z,58.73
2023-03-27T06:34:26.261Z,59.50
2023-03-27T06:37:03.614Z,58.26
2023-03-27T06:39:37.576Z,56.45
2023-03-27T06:42:05.549Z,54.56
2023-03-27T06:44:45.529Z,55.06
2023-03-27T06:47:20.373Z,55.89
2023-03-27T06:50:19.626Z,57.04
2023-03-27T06:52:48.874Z,56.63
2023-03-27T06:55:37.138Z,56.21
2023-03-27T06:58:05.272Z,56.83
2023-03-27T07:00:35.340Z,55.96
2023-03-27T07:03:23.980Z,56.27
2023-03-27T07:06:12.224Z,55.51
2023-03-27T07:08:49.317Z,55.67
2023-03-27T07:11:18.262Z,54.97
2023-03-27T07:13:55.646Z,55.70
2023-03-27T07:16:28.017Z,57.14
2023-03-27T07:19:00.869Z,57.19
2023-03-27T07:21:31.706Z,56.64
2023-03-27T07:24:00.818Z,55.61
2023-03-27T07:26:34.037Z,56.19
2023-03-27T07:29:03.922Z,56.34
2023-03-27T07:31:54.693Z,54.83
2023-03-27T07:34:20.855Z,52.29
2023-03-27T07:37:11.198Z,52.80
2023-03-27T07:39:47.218Z,50.46
2023-03-27T07:42:16.322Z,49.44
2023-03-27T07:44:58.663Z,100.00
2023-03-27T07:47:27.134Z,50.20
2023-03-27T07:49:58.408Z,53.20
2023-03-27T07:52:29.509Z,51.57
2023-03-27T07:55:00.012Z,52.70
2023-03-27T07:57:55.043Z,52.21
2023-03-27T08:00:27.911Z,52.13
2023-03-27T08:03:07.906Z,52.19
2023-03-27T08:05:36.390Z,52.21
2023-03-27T08:08:12.470Z,53.14
2023-03-27T08:10:52.368Z,52.53
2023-03-27T08:13:20.455Z,52.50
2023-03-27T08:15:48.530Z,51.34
2023-03-27T08:18:23.078Z,50.00
2023-03-27T08:20:57.175Z,49.57
2023-03-27T08:23:28.104Z,47.95
2023-03-27T08:26:15.454Z,46.20
2023-03-27T08:28:57.377Z,44.27
2023-03-27T08:31:30.735Z,43.46
2023-03-27T08:34:04.548Z,43.24
2023-03-27T08:36:45.902Z,45.03
2023-03-27T08:39:16.963Z,45.39
2023-03-27T08:42:03.839Z,45.90
2023-03-27T08:44:38.428Z,46.73
2023-03-27T08:47:18.151Z,48.10
2023-03-27T08:49:59.719Z,46.94
2023-03-27T08:52:34.462Z,46.30
2023-03-27T08:55:15.326Z,47.06
2023-03-27T08:57:51.748Z,47.33
2023-03-27T09:00:27.353Z,47.30
2023-03-27T09:03:16.848Z,46.40
2023-03-27T09:05:50.247Z,47.84
2023-03-27T09:08:35.752Z,48.45
2023-03-27T09:11:14.578Z,47.06
2023-03-27T09:13:53.460Z,44.50
2023-03-27T09:16:29.407Z,43.70
2023-03-27T09:19:04.912Z,43.26
2023-03-27T09:21:39.904Z,43.08
2023-03-27T09:24:16.767Z,41.33
2023-03-27T09:27:16.522Z,40.45
2023-03-27T09:30:05.025Z,40.93
2023-03-27T09:32:46.283Z,40.21
2023-03-27T09:35:15.350Z,39.72
2023-03-27T09:37:43.672Z,39.27
2023-03-27T09:40:23.466Z,38.71
2023-03-27T09:42:55.312Z,39.40
2023-03-27T09:45:24.533Z,38.87
2023-03-27T09:48:02.736Z,36.85
2023-03-27T09:50:44.459Z,41.30
2023-03-27T09:53:39.776Z,37.48
2023-03-27T09:56:19.256Z,38.51
2023-03-27T09:58:54.398Z,39.48
2023-03-27T10:01:30.322Z,41.02
2023-03-27T10:04:17.671Z,40.76
2023-03-27T10:06:51.389Z,40.92
2023-03-27T10:09:29.827Z,38.98
2023-03-27T10:12:17.429Z,38.60
2023-03-27T10:14:52.542Z,37.20
2023-03-27T10:17:28.202Z,36.70
2023-03-27T10:20:09.074Z,34.65
2023-03-27T10:22:41.367Z,38.32
2023-03-27T10:25:17.551Z,39.52
2023-03-27T10:27:54.245Z,39.58
2023-03-27T10:30:40.536Z,39.86
2023-03-27T10:33:31.412Z,36.36
2023-03-27T10:36:40.686Z,33.81
2023-03-27T10:39:15.787Z,36.23
2023-03-27T10:42:09.468Z,38.42
2023-03-27T10:44:42.292Z,38.27
2023-03-27T10:47:19.834Z,37.79
2023-03-27T10:49:56.601Z,37.48
2023-03-27T10:52:45.744Z,37.38
2023-03-27T10:55:25.989Z,38.25
2023-03-27T10:57:57.578Z,38.82
2023-03-27T11:00:36.906Z,38.96
2023-03-27T11:03:16.065Z,38.91
2023-03-27T11:05:48.652Z,39.54
2023-03-27T11:08:35.031Z,41.57
2023-03-27T11:11:09.643Z,38.61
2023-03-27T11:13:46.840Z,38.19
2023-03-27T11:16:21.659Z,36.17
2023-03-27T11:19:23.490Z,36.08
2023-03-27T11:22:15.406Z,35.80
2023-03-27T11:24:51.709Z,35.59
2023-03-27T11:27:26.746Z,33.82
2023-03-27T11:30:04.768Z,35.87
2023-03-27T11:32:52.856Z,34.04
2023-03-27T11:35:25.764Z,35.42
2023-03-27T11:38:17.096Z,33.50
2023-03-27T11:40:47.642Z,33.40
2023-03-27T11:43:18.253Z,32.59
2023-03-27T11:45:54.841Z,32.25
2023-03-27T11:48:49.082Z,32.27
2023-03-27T11:51:26.389Z,33.98
2023-03-27T11:54:24.244Z,34.28
2023-03-27T11:56:59.289Z,32.12
2023-03-27T11:59:59.943Z,33.27
2023-03-27T12:02:58.160Z,35.22
2023-03-27T12:05:38.533Z,34.92
2023-03-27T12:08:18.103Z,34.23
2023-03-27T12:10:52.796Z,37.38
2023-03-27T12:14:17.696Z,36.70
2023-03-27T12:17:08.851Z,38.06
2023-03-27T12:20:22.424Z,35.71
2023-03-27T12:23:03.800Z,36.82
2023-03-27T12:26:11.196Z,37.83
2023-03-27T12:29:23.400Z,37.10
2023-03-27T12:32:11.323Z,35.88
2023-03-27T12:34:53.066Z,36.50
2023-03-27T12:37:27.376Z,35.01
2023-03-27T12:39:59.036Z,35.91
2023-03-27T12:42:49.537Z,36.99
2023-03-27T12:45:23.568Z,37.25
2023-03-27T12:48:20.281Z,36.40
2023-03-27T12:50:58.096Z,35.75
2023-03-27T12:53:48.789Z,35.79
2023-03-27T12:56:33.378Z,34.62
2023-03-27T12:59:04.405Z,36.19
2023-03-27T13:01:55.439Z,36.91
2023-03-27T13:04:50.563Z,37.23
2023-03-27T13:07:27.518Z,41.09
2023-03-27T13:10:46.386Z,47.24
2023-03-27T13:13:55.815Z,43.51
2023-03-27T13:16:34.953Z,41.98
2023-03-27T13:19:22.970Z,40.69
2023-03-27T13:22:17.533Z,40.20
2023-03-27T13:25:08.366Z,41.13
2023-03-27T13:27:47.679Z,40.21
2023-03-27T13:30:44.006Z,43.04
2023-03-27T13:33:45.049Z,46.01
2023-03-27T13:36:20.037Z,46.47
2023-03-27T13:39:24.890Z,43.52
2023-03-27T13:42:11.246Z,47.45
2023-03-27T13:44:57.845Z,47.47
2023-03-27T13:47:55.249Z,47.86
2023-03-27T13:50:47.322Z,45.98
2023-03-27T13:53:33.508Z,45.15
2023-03-27T13:56:31.744Z,44.55
2023-03-27T13:59:43.274Z,44.22
2023-03-27T14:02:41.333Z,46.27
2023-03-27T14:05:25.226Z,45.18
2023-03-27T14:08:13.164Z,46.94
2023-03-27T14:11:23.800Z,45.35
2023-03-27T14:14:16.489Z,46.47
2023-03-27T14:17:10.912Z,45.87
2023-03-27T14:20:20.180Z,45.62
2023-03-27T14:22:54.564Z,45.89
2023-03-27T14:25:31.483Z,48.00
2023-03-27T14:28:29.113Z,44.28
2023-03-27T14:31:02.230Z,45.89
2023-03-27T14:34:02.829Z,47.15
2023-03-27T14:36:34.560Z,44.78
2023-03-27T14:39:14.769Z,46.18
2023-03-27T14:41:47.115Z,45.51
2023-03-27T14:44:19.179Z,45.13
2023-03-27T14:46:49.004Z,44.40
2023-03-27T14:49:20.792Z,44.58
2023-03-27T14:51:55.811Z,44.31
2023-03-27T14:54:54.648Z,45.23
2023-03-27T14:57:27.988Z,43.58
2023-03-27T15:00:00.431Z,42.92
2023-03-27T15:02:32.649Z,44.86
2023-03-27T15:05:08.589Z,43.37
2023-03-27T15:07:38.292Z,44.50
2023-03-27T15:10:36.057Z,44.54
2023-03-27T15:13:27.738Z,44.04
2023-03-27T15:16:00.950Z,44.83
2023-03-27T15:18:36.087Z,43.91
2023-03-27T15:21:07.117Z,43.21
2023-03-27T15:23:42.459Z,43.03
2023-03-27T15:26:19.078Z,45.65
2023-03-27T15:28:55.048Z,44.03
2023-03-27T15:31:25.713Z,46.53
2023-03-27T15:34:02.180Z,47.79
2023-03-27T15:36:34.298Z,47.61
2023-03-27T15:39:04.096Z,45.71
2023-03-27T15:41:42.715Z,44.60
2023-03-27T15:44:14.274Z,46.02
2023-03-27T15:46:50.634Z,45.56
2023-03-27T15:49:28.567Z,46.32
2023-03-27T15:51:58.002Z,44.57
2023-03-27T15:54:29.173Z,44.28
2023-03-27T15:57:09.746Z,45.99
2023-03-27T15:59:53.056Z,46.51
2023-03-27T16:02:26.420Z,45.72
2023-03-27T16:04:57.142Z,46.11
2023-03-27T16:07:30.086Z,46.19
2023-03-27T16:10:02.322Z,46.44
2023-03-27T16:12:33.810Z,45.79
2023-03-27T16:15:05.677Z,47.29
2023-03-27T16:17:41.185Z,50.07
2023-03-27T16:20:34.997Z,54.50
2023-03-27T16:23:04.166Z,58.63
2023-03-27T16:25:32.159Z,59.52
2023-03-27T16:28:00.120Z,59.56
2023-03-27T16:30:31.965Z,58.79
2023-03-27T16:33:01.604Z,60.03
2023-03-27T16:35:31.888Z,57.01
2023-03-27T16:38:00.156Z,56.81
2023-03-27T16:40:28.295Z,60.40
2023-03-27T16:42:56.518Z,59.46
2023-03-27T16:45:24.376Z,56.71
2023-03-27T16:47:53.257Z,56.14
2023-03-27T16:50:25.502Z,58.03
2023-03-27T16:52:53.786Z,59.47
2023-03-27T16:55:21.910Z,57.82
2023-03-27T16:57:52.334Z,55.63
2023-03-27T17:00:21.265Z,56.97
2023-03-27T17:02:49.192Z,56.95
2023-03-27T17:05:17.259Z,58.99
2023-03-27T17:07:48.143Z,56.91
2023-03-27T17:10:16.364Z,59.26
2023-03-27T17:12:44.298Z,57.63
2023-03-27T17:15:12.846Z,56.68
2023-03-27T17:17:40.889Z,56.14
2023-03-27T17:20:09.925Z,60.13
2023-03-27T17:22:37.919Z,57.56
2023-03-27T17:25:09.936Z,58.94
2023-03-27T17:27:38.136Z,57.16
2023-03-27T17:30:07.169Z,58.17
2023-03-27T17:32:35.172Z,58.31
2023-03-27T17:35:04.453Z,57.93
2023-03-27T17:37:32.362Z,57.13
2023-03-27T17:40:00.669Z,58.00
2023-03-27T17:42:29.931Z,58.06
2023-03-27T17:44:57.810Z,57.16
2023-03-27T17:47:25.944Z,57.45
2023-03-27T17:49:54.594Z,58.81
2023-03-27T17:52:23.408Z,58.79
2023-03-27T17:54:51.423Z,59.15
2023-03-27T17:57:19.388Z,59.65
2023-03-27T17:59:48.632Z,59.73
2023-03-27T18:02:18.326Z,58.89
2023-03-27T18:04:48.680Z,58.60
2023-03-27T18:07:16.528Z,58.10
2023-03-27T18:09:44.448Z,58.45
2023-03-27T18:12:12.369Z,57.79
2023-03-27T18:14:41.537Z,59.68
2023-03-27T18:17:11.310Z,60.98
2023-03-27T18:19:39.157Z,58.35
2023-03-27T18:22:07.129Z,58.59
2023-03-27T18:24:34.990Z,57.53
2023-03-27T18:27:02.852Z,58.17
2023-03-27T18:29:32.763Z,58.53
2023-03-27T18:32:00.766Z,57.21
2023-03-27T18:34:30.127Z,55.62
2023-03-27T18:36:58.010Z,57.14
2023-03-27T18:39:27.281Z,58.04
2023-03-27T18:41:58.559Z,60.61
2023-03-27T18:44:26.555Z,61.50
2023-03-27T18:46:54.713Z,61.49
2023-03-27T18:49:25.162Z,62.31
2023-03-27T18:51:54.898Z,63.06
2023-03-27T18:54:22.910Z,62.35
2023-03-27T18:56:51.996Z,64.25
2023-03-27T18:59:20.038Z,63.06
2023-03-27T19:01:47.993Z,64.49
2023-03-27T19:04:17.264Z,63.40
2023-03-27T19:06:46.186Z,63.72
2023-03-27T19:09:16.031Z,63.48
2023-03-27T19:11:44.784Z,63.22
2023-03-27T19:14:42.285Z,62.89
2023-03-27T19:17:28.790Z,63.44
2023-03-27T19:20:19.555Z,63.24
2023-03-27T19:23:07.804Z,62.85
2023-03-27T19:25:41.043Z,62.80
2023-03-27T19:28:08.942Z,62.12
2023-03-27T19:30:36.863Z,62.56
2023-03-27T19:33:04.832Z,63.07
2023-03-27T19:35:32.802Z,62.41
2023-03-27T19:38:00.685Z,63.47
2023-03-27T19:40:28.584Z,63.50
2023-03-27T19:42:57.847Z,63.58
2023-03-27T19:45:26.368Z,64.39
2023-03-27T19:47:54.409Z,62.63
2023-03-27T19:50:22.682Z,65.01
2023-03-27T19:53:09.325Z,64.24
2023-03-27T19:55:37.372Z,64.19
2023-03-27T19:58:06.655Z,65.55
2023-03-27T20:00:38.305Z,65.06
2023-03-27T20:03:10.355Z,65.80
2023-03-27T20:05:40.458Z,65.81
2023-03-27T20:08:08.370Z,66.43
2023-03-27T20:10:36.258Z,66.49
2023-03-27T20:13:04.166Z,65.96
2023-03-27T20:15:35.281Z,65.46
2023-03-27T20:18:04.761Z,67.00
2023-03-27T20:20:32.747Z,66.08
2023-03-27T20:23:02.927Z,66.29
2023-03-27T20:25:33.672Z,66.12
2023-03-27T20:28:01.851Z,65.44
2023-03-27T20:30:30.619Z,67.22
2023-03-27T20:33:03.044Z,66.85
2023-03-27T20:35:32.949Z,66.13
2023-03-27T20:38:04.756Z,67.14
2023-03-27T20:43:16.736Z,67.87
2023-03-27T20:45:45.760Z,66.91
2023-03-27T20:48:18.010Z,67.75
2023-03-27T20:50:51.275Z,67.00
2023-03-27T20:53:26.290Z,66.61
2023-03-27T20:56:00.102Z,66.19
2023-03-27T20:58:29.203Z,66.84
2023-03-27T21:00:57.182Z,66.07
2023-03-27T21:03:26.583Z,65.76
2023-03-27T21:05:54.467Z,65.42
2023-03-27T21:08:22.346Z,65.77
2023-03-27T21:10:53.975Z,66.33
2023-03-27T21:13:22.182Z,66.21
2023-03-27T21:15:50.180Z,66.22
2023-03-27T21:18:19.034Z,67.53
2023-03-27T21:20:48.245Z,67.68
2023-03-27T21:23:16.200Z,68.15
2023-03-27T21:25:45.269Z,67.98
2023-03-27T21:28:13.666Z,68.67
2023-03-27T21:30:47.083Z,68.40
2023-03-27T21:33:16.823Z,69.34
2023-03-27T21:35:48.629Z,69.11
2023-03-27T21:38:17.940Z,71.12
2023-03-27T21:40:46.791Z,70.87
2023-03-27T21:43:15.124Z,70.41
2023-03-27T21:45:43.092Z,69.58
2023-03-27T21:48:11.289Z,69.78
2023-03-27T21:50:39.309Z,69.33
2023-03-27T21:53:08.712Z,70.61
2023-03-27T21:55:37.415Z,70.17
2023-03-27T21:58:05.795Z,69.29
2023-03-27T22:00:33.995Z,70.11
2023-03-27T22:03:01.939Z,70.15
2023-03-27T22:05:29.896Z,69.83
2023-03-27T22:07:58.633Z,68.65
2023-03-27T22:10:27.925Z,68.86
2023-03-27T22:12:55.981Z,68.83
2023-03-27T22:15:23.888Z,69.83
2023-03-27T22:17:51.803Z,70.87
2023-03-27T22:20:20.325Z,69.50
2023-03-27T22:22:48.545Z,69.36
2023-03-27T22:25:16.543Z,69.38
2023-03-27T22:27:46.458Z,70.06
2023-03-27T22:30:15.052Z,70.12
2023-03-27T22:32:43.216Z,70.10
2023-03-27T22:35:12.077Z,69.95
2023-03-27T22:37:41.058Z,68.98
2023-03-27T22:40:09.917Z,69.15
2023-03-27T22:42:37.976Z,70.27
2023-03-27T22:45:08.264Z,68.27
2023-03-27T22:47:36.233Z,68.64
2023-03-27T22:50:06.411Z,68.87
2023-03-27T22:52:34.421Z,69.01
2023-03-27T22:55:02.301Z,68.54
2023-03-27T22:57:30.259Z,68.64
2023-03-27T22:59:58.212Z,67.88
2023-03-27T23:02:27.675Z,68.28
2023-03-27T23:04:55.961Z,67.77
2023-03-27T23:07:24.124Z,68.01
2023-03-27T23:09:52.108Z,67.23
2023-03-27T23:12:20.005Z,67.10
2023-03-27T23:14:47.886Z,66.95
2023-03-27T23:17:15.868Z,68.65
2023-03-27T23:19:45.141Z,67.55
2023-03-27T23:22:13.016Z,67.36
2023-03-27T23:24:40.885Z,67.33
2023-03-27T23:27:09.358Z,67.59
2023-03-27T23:29:37.291Z,66.17
2023-03-27T23:32:05.846Z,66.82
2023-03-27T23:34:33.748Z,67.30
2023-03-27T23:37:02.971Z,66.99
2023-03-27T23:39:30.874Z,66.89
2023-03-27T23:41:58.783Z,66.96
2023-03-27T23:44:26.755Z,66.26
2023-03-27T23:46:54.622Z,66.61
2023-03-27T23:49:22.465Z,65.85
2023-03-27T23:51:50.508Z,66.61
2023-03-27T23:54:19.729Z,67.46
2023-03-27T23:56:47.619Z,66.96
2023-03-27T23:59:15.803Z,67.02
